Traphill, North Carolina
Current Conditions -  °F | °C
As of 9:15 AM on Friday 19 Dec 2014 (Local Time) from KUKF Reporting Station
Scattered Clouds Scattered Clouds  
Wind Chill: 39°   Ceiling: Unl
Heat Index: 39°   Visibility: 10mi
Dew Point: 25°   Wind: 0mph
Humidity: 56%   Direction: NA
Pressure: 30.22"   Gusts: NA
Location:  36.35°N, 81.03°W
Report Text: KUKF 191415Z AUTO 00000KT 10SM SCT050 04/M04 A3022 RMK AO2
Loading
Personal Weather Stations






























Interactive Weather Map New forecast layout! Learn more

10-Day Weather Forecast

Advertisements
Track Severe Weather on mobile